createdAt,value
2023-02-23T00:01:41.865Z,6.86
2023-02-23T00:04:09.484Z,6.88
2023-02-23T00:06:37.455Z,6.85
2023-02-23T00:09:34.793Z,6.84
2023-02-23T00:12:07.790Z,6.84
2023-02-23T00:14:37.729Z,6.76
2023-02-23T00:17:10.877Z,6.82
2023-02-23T00:19:37.902Z,6.79
2023-02-23T00:22:04.754Z,6.77
2023-02-23T00:24:31.606Z,6.77
2023-02-23T00:26:58.629Z,6.84
2023-02-23T00:29:27.077Z,6.82
2023-02-23T00:31:56.238Z,6.89
2023-02-23T00:34:23.851Z,6.94
2023-02-23T00:36:55.697Z,7.01
2023-02-23T00:39:26.892Z,6.99
2023-02-23T00:41:55.652Z,6.92
2023-02-23T00:44:23.988Z,6.96
2023-02-23T00:46:52.648Z,6.94
2023-02-23T00:49:22.535Z,6.94
2023-02-23T00:51:49.467Z,6.92
2023-02-23T00:54:17.338Z,6.90
2023-02-23T00:56:45.648Z,6.84
2023-02-23T00:59:13.369Z,6.75
2023-02-23T01:01:44.428Z,6.75
2023-02-23T01:04:12.526Z,6.72
2023-02-23T01:06:40.886Z,6.70
2023-02-23T01:09:14.186Z,6.82
2023-02-23T01:11:46.922Z,6.78
2023-02-23T01:14:14.520Z,6.82
2023-02-23T01:16:41.356Z,6.82
2023-02-23T01:19:08.274Z,6.84
2023-02-23T01:21:42.331Z,6.87
2023-02-23T01:24:09.774Z,6.84
2023-02-23T01:26:39.504Z,6.83
2023-02-23T01:29:17.286Z,6.84
2023-02-23T01:31:46.504Z,6.84
2023-02-23T01:34:17.739Z,6.79
2023-02-23T01:36:45.350Z,6.80
2023-02-23T01:39:15.047Z,6.81
2023-02-23T01:41:45.071Z,6.75
2023-02-23T01:44:14.550Z,6.80
2023-02-23T01:46:46.482Z,6.71
2023-02-23T01:49:22.986Z,6.67
2023-02-23T01:51:55.792Z,6.54
2023-02-23T01:54:29.107Z,6.58
2023-02-23T01:56:58.770Z,6.57
2023-02-23T01:59:34.234Z,6.53
2023-02-23T02:02:01.511Z,6.48
2023-02-23T02:04:29.025Z,6.49
2023-02-23T02:07:03.729Z,6.45
2023-02-23T02:09:37.867Z,6.40
2023-02-23T02:12:08.533Z,6.38
2023-02-23T02:14:36.574Z,6.35
2023-02-23T02:17:22.329Z,6.41
2023-02-23T02:19:48.973Z,6.47
2023-02-23T02:22:48.229Z,6.49
2023-02-23T02:25:44.099Z,6.48
2023-02-23T02:28:38.493Z,6.58
2023-02-23T02:31:19.916Z,6.61
2023-02-23T02:33:58.425Z,6.64
2023-02-23T02:36:50.299Z,6.65
2023-02-23T02:39:40.109Z,6.67
2023-02-23T02:42:28.865Z,6.68
2023-02-23T02:45:13.055Z,6.70
2023-02-23T02:48:03.131Z,6.65
2023-02-23T02:50:55.713Z,6.60
2023-02-23T02:54:06.909Z,6.63
2023-02-23T02:56:40.571Z,6.61
2023-02-23T02:59:31.449Z,6.53
2023-02-23T03:02:17.556Z,6.42
2023-02-23T03:05:03.429Z,6.49
2023-02-23T03:07:55.355Z,6.44
2023-02-23T03:11:22.617Z,6.36
2023-02-23T03:14:34.400Z,6.42
2023-02-23T03:17:52.556Z,6.42
2023-02-23T03:21:00.868Z,6.52
2023-02-23T03:23:49.438Z,6.49
2023-02-23T03:26:57.830Z,6.44
2023-02-23T03:29:52.400Z,6.42
2023-02-23T03:32:48.920Z,6.53
2023-02-23T03:35:49.785Z,6.52
2023-02-23T03:38:45.248Z,6.55
2023-02-23T03:41:33.067Z,6.52
2023-02-23T03:44:24.425Z,6.60
2023-02-23T03:47:11.972Z,6.59
2023-02-23T03:50:00.822Z,6.61
2023-02-23T03:53:03.534Z,6.64
2023-02-23T03:55:52.810Z,6.67
2023-02-23T03:58:45.182Z,6.64
2023-02-23T04:01:31.897Z,6.63
2023-02-23T04:04:18.122Z,6.63
2023-02-23T04:07:06.037Z,6.63
2023-02-23T04:09:51.639Z,6.62
2023-02-23T04:12:40.866Z,6.61
2023-02-23T04:15:10.093Z,6.60
2023-02-23T04:17:36.941Z,6.64
2023-02-23T04:20:04.824Z,6.67
2023-02-23T04:22:31.948Z,6.68
2023-02-23T04:24:58.630Z,6.80
2023-02-23T04:27:25.317Z,6.82
2023-02-23T04:29:52.024Z,6.79
2023-02-23T04:32:21.075Z,6.84
2023-02-23T04:34:47.894Z,6.85
2023-02-23T04:37:14.692Z,6.86
2023-02-23T04:39:42.906Z,6.83
2023-02-23T04:42:10.223Z,6.82
2023-02-23T04:44:36.889Z,6.85
2023-02-23T04:47:04.272Z,6.85
2023-02-23T04:49:31.037Z,6.86
2023-02-23T04:51:57.723Z,6.92
2023-02-23T04:54:24.323Z,6.91
2023-02-23T04:56:50.952Z,6.93
2023-02-23T04:59:17.650Z,6.93
2023-02-23T05:01:44.565Z,6.92
2023-02-23T05:04:11.429Z,6.93
2023-02-23T05:06:38.290Z,6.94
2023-02-23T05:09:06.322Z,7.01
2023-02-23T05:11:33.420Z,6.91
2023-02-23T05:14:00.118Z,6.82
2023-02-23T05:16:26.835Z,6.81
2023-02-23T05:18:53.720Z,6.79
2023-02-23T05:21:20.749Z,6.73
2023-02-23T05:23:48.448Z,6.63
2023-02-23T05:26:15.176Z,6.65
2023-02-23T05:28:43.200Z,6.71
2023-02-23T05:31:10.690Z,6.79
2023-02-23T05:33:45.820Z,6.82
2023-02-23T05:36:17.746Z,6.84
2023-02-23T05:38:45.978Z,6.84
2023-02-23T05:41:17.784Z,6.87
2023-02-23T05:43:44.969Z,6.90
2023-02-23T05:46:15.675Z,6.93
2023-02-23T05:48:42.458Z,6.92
2023-02-23T05:51:12.676Z,6.98
2023-02-23T05:53:40.189Z,6.98
2023-02-23T05:56:09.163Z,6.99
2023-02-23T05:58:35.818Z,7.01
2023-02-23T06:01:02.501Z,6.94
2023-02-23T06:03:29.190Z,7.02
2023-02-23T06:05:57.948Z,7.02
2023-02-23T06:08:26.046Z,6.98
2023-02-23T06:10:53.553Z,7.04
2023-02-23T06:13:21.598Z,7.05
2023-02-23T06:15:49.660Z,7.02
2023-02-23T06:18:17.606Z,7.08
2023-02-23T06:20:45.975Z,7.08
2023-02-23T06:23:12.899Z,7.08
2023-02-23T06:25:40.479Z,7.08
2023-02-23T06:28:08.667Z,7.05
2023-02-23T06:30:36.658Z,7.12
2023-02-23T06:33:03.567Z,7.05
2023-02-23T06:35:30.407Z,7.07
2023-02-23T06:37:57.109Z,7.07
2023-02-23T06:40:23.959Z,7.05
2023-02-23T06:42:50.890Z,7.08
2023-02-23T06:45:19.320Z,7.10
2023-02-23T06:47:47.254Z,7.06
2023-02-23T06:50:14.850Z,7.08
2023-02-23T06:52:42.080Z,6.96
2023-02-23T06:55:09.800Z,6.89
2023-02-23T06:57:36.846Z,6.84
2023-02-23T07:00:04.738Z,6.81
2023-02-23T07:02:31.856Z,6.83
2023-02-23T07:04:58.958Z,6.92
2023-02-23T07:07:25.867Z,7.01
2023-02-23T07:09:52.507Z,7.03
2023-02-23T07:12:19.137Z,7.08
2023-02-23T07:14:45.776Z,7.16
2023-02-23T07:17:12.759Z,7.15
2023-02-23T07:19:39.528Z,7.17
2023-02-23T07:22:06.180Z,7.16
2023-02-23T07:24:32.860Z,7.20
2023-02-23T07:26:59.572Z,7.22
2023-02-23T07:29:27.685Z,7.31
2023-02-23T07:31:55.451Z,7.32
2023-02-23T07:34:22.513Z,7.24
2023-02-23T07:36:49.303Z,7.25
2023-02-23T07:39:15.925Z,7.27
2023-02-23T07:41:42.622Z,7.25
2023-02-23T07:44:17.842Z,7.23
2023-02-23T07:46:46.501Z,7.21
2023-02-23T07:49:13.922Z,7.21
2023-02-23T07:51:41.135Z,7.23
2023-02-23T07:54:07.776Z,7.29
2023-02-23T07:56:35.344Z,7.26
2023-02-23T07:59:02.430Z,7.31
2023-02-23T08:01:29.170Z,7.31
2023-02-23T08:03:55.896Z,7.42
2023-02-23T08:06:22.673Z,7.51
2023-02-23T08:08:49.416Z,7.58
2023-02-23T08:11:16.390Z,7.60
2023-02-23T08:13:43.268Z,7.63
2023-02-23T08:16:10.029Z,7.60
2023-02-23T08:18:36.767Z,7.45
2023-02-23T08:21:04.727Z,7.55
2023-02-23T08:23:32.925Z,7.57
2023-02-23T08:26:00.539Z,7.56
2023-02-23T08:28:28.987Z,7.60
2023-02-23T08:30:55.928Z,7.55
2023-02-23T08:33:23.276Z,7.67
2023-02-23T08:35:49.981Z,7.71
2023-02-23T08:38:18.332Z,7.79
2023-02-23T08:40:45.235Z,7.90
2023-02-23T08:43:11.882Z,7.93
2023-02-23T08:45:39.705Z,7.83
2023-02-23T08:48:09.459Z,7.79
2023-02-23T08:50:36.168Z,7.78
2023-02-23T08:53:04.214Z,7.75
2023-02-23T08:55:31.116Z,7.78
2023-02-23T08:57:58.316Z,7.69
2023-02-23T09:00:25.005Z,7.72
2023-02-23T09:02:51.854Z,7.71
2023-02-23T09:05:18.768Z,7.78
2023-02-23T09:07:46.619Z,7.81
2023-02-23T09:10:16.925Z,7.87
2023-02-23T09:12:43.572Z,7.93
2023-02-23T09:15:10.691Z,7.98
2023-02-23T09:17:37.871Z,8.04
2023-02-23T09:20:05.883Z,8.06
2023-02-23T09:22:32.781Z,8.09
2023-02-23T09:24:59.456Z,7.97
2023-02-23T09:27:26.152Z,7.98
2023-02-23T09:29:52.864Z,8.04
2023-02-23T09:32:19.706Z,8.11
2023-02-23T09:34:48.611Z,8.14
2023-02-23T09:37:15.782Z,8.24
2023-02-23T09:39:43.582Z,8.34
2023-02-23T09:42:25.964Z,8.42
2023-02-23T09:45:16.958Z,8.50
2023-02-23T09:48:13.253Z,8.56
2023-02-23T09:50:45.048Z,8.58
2023-02-23T09:53:34.028Z,8.63
2023-02-23T09:56:04.201Z,8.58
2023-02-23T09:58:33.996Z,8.63
2023-02-23T10:01:31.699Z,8.68
2023-02-23T10:04:23.635Z,8.66
2023-02-23T10:06:59.922Z,8.68
2023-02-23T10:09:45.503Z,8.68
2023-02-23T10:12:30.417Z,8.73
2023-02-23T10:15:15.855Z,8.79
2023-02-23T10:18:13.551Z,8.81
2023-02-23T10:21:04.982Z,8.85
2023-02-23T10:23:42.916Z,8.78
2023-02-23T10:26:17.520Z,8.83
2023-02-23T10:28:46.340Z,8.87
2023-02-23T10:31:42.387Z,8.93
2023-02-23T10:34:16.976Z,9.02
2023-02-23T10:37:06.168Z,9.19
2023-02-23T10:39:33.758Z,9.20
2023-02-23T10:42:03.921Z,9.32
2023-02-23T10:44:30.839Z,9.34
2023-02-23T10:47:12.851Z,9.47
2023-02-23T10:49:44.997Z,9.51
2023-02-23T10:52:13.665Z,9.69
2023-02-23T10:54:49.091Z,9.81
2023-02-23T10:57:33.971Z,10.05
2023-02-23T11:00:31.172Z,10.21
2023-02-23T11:02:58.589Z,10.43
2023-02-23T11:05:28.760Z,10.60
2023-02-23T11:08:12.394Z,10.73
2023-02-23T11:10:39.251Z,10.83
2023-02-23T11:13:05.924Z,10.92
2023-02-23T11:15:49.741Z,10.99
2023-02-23T11:18:24.615Z,11.08
2023-02-23T11:20:51.894Z,11.06
2023-02-23T11:23:24.570Z,11.03
2023-02-23T11:25:56.576Z,10.90
2023-02-23T11:28:32.294Z,10.93
2023-02-23T11:31:16.343Z,10.98
2023-02-23T11:33:43.678Z,10.98
2023-02-23T11:36:22.571Z,10.94
2023-02-23T11:39:16.956Z,11.01
2023-02-23T11:41:43.660Z,11.13
2023-02-23T11:44:23.903Z,11.38
2023-02-23T11:46:51.804Z,11.37
2023-02-23T11:49:25.952Z,11.24
2023-02-23T11:51:54.457Z,11.08
2023-02-23T11:54:31.166Z,11.02
2023-02-23T11:56:58.674Z,11.01
2023-02-23T11:59:41.151Z,11.04
2023-02-23T12:02:15.787Z,11.09
2023-02-23T12:04:47.529Z,11.21
2023-02-23T12:07:38.944Z,11.43
2023-02-23T12:10:15.212Z,11.59
2023-02-23T12:12:51.758Z,11.63
2023-02-23T12:15:38.672Z,11.70
2023-02-23T12:18:17.173Z,11.72
2023-02-23T12:20:48.699Z,11.60
2023-02-23T12:23:22.529Z,11.56
2023-02-23T12:25:59.893Z,11.47
2023-02-23T12:28:34.424Z,11.46
2023-02-23T12:31:19.828Z,11.56
2023-02-23T12:33:51.654Z,11.66
2023-02-23T12:36:51.293Z,11.84
2023-02-23T12:39:24.709Z,11.87
2023-02-23T12:42:17.477Z,11.81
2023-02-23T12:44:53.684Z,11.83
2023-02-23T12:47:29.596Z,11.72
2023-02-23T12:50:38.336Z,11.62
2023-02-23T12:53:12.522Z,11.64
2023-02-23T12:56:04.406Z,11.60
2023-02-23T12:59:03.033Z,11.64
2023-02-23T13:01:53.162Z,11.68
2023-02-23T13:04:41.449Z,11.88
2023-02-23T13:07:34.500Z,12.36
2023-02-23T13:10:30.055Z,12.47
2023-02-23T13:12:59.695Z,12.45
2023-02-23T13:15:29.191Z,12.40
2023-02-23T13:18:17.726Z,12.51
2023-02-23T13:20:51.976Z,13.22
2023-02-23T13:23:26.881Z,13.84
2023-02-23T13:26:13.064Z,13.53
2023-02-23T13:28:49.087Z,13.24
2023-02-23T13:31:24.637Z,13.05
2023-02-23T13:33:53.946Z,12.94
2023-02-23T13:36:21.724Z,12.85
2023-02-23T13:39:26.716Z,12.56
2023-02-23T13:42:11.709Z,12.60
2023-02-23T13:45:14.492Z,12.53
2023-02-23T13:47:50.323Z,12.47
2023-02-23T13:50:35.986Z,12.46
2023-02-23T13:53:07.163Z,12.45
2023-02-23T13:55:58.301Z,12.83
2023-02-23T13:58:29.861Z,13.15
2023-02-23T14:01:37.090Z,13.10
2023-02-23T14:04:12.550Z,12.99
2023-02-23T14:06:41.391Z,12.81
2023-02-23T14:09:18.163Z,12.62
2023-02-23T14:11:48.053Z,12.59
2023-02-23T14:14:34.607Z,12.66
2023-02-23T14:17:16.444Z,12.85
2023-02-23T14:20:17.833Z,12.85
2023-02-23T14:23:22.009Z,12.77
2023-02-23T14:26:35.093Z,12.84
2023-02-23T14:29:21.776Z,13.17
2023-02-23T14:32:24.475Z,12.89
2023-02-23T14:35:00.873Z,12.69
2023-02-23T14:37:37.827Z,12.55
2023-02-23T14:40:15.327Z,12.44
2023-02-23T14:42:46.357Z,12.29
2023-02-23T14:45:41.576Z,12.16
2023-02-23T14:48:13.441Z,12.05
2023-02-23T14:50:41.509Z,12.10
2023-02-23T14:53:23.410Z,12.07
2023-02-23T14:55:50.296Z,11.98
2023-02-23T14:58:23.842Z,11.89
2023-02-23T15:00:52.123Z,11.81
2023-02-23T15:03:18.914Z,11.69
2023-02-23T15:05:52.790Z,11.64
2023-02-23T15:08:23.703Z,11.57
2023-02-23T15:10:59.042Z,11.57
2023-02-23T15:16:36.884Z,11.26
2023-02-23T15:19:33.510Z,11.22
2023-02-23T15:22:03.118Z,11.12
2023-02-23T15:24:42.196Z,11.12
2023-02-23T15:27:22.883Z,11.11
2023-02-23T15:29:50.334Z,11.09
2023-02-23T15:32:24.876Z,11.04
2023-02-23T15:35:04.962Z,11.08
2023-02-23T15:37:59.508Z,11.04
2023-02-23T15:40:38.100Z,11.03
2023-02-23T15:43:04.890Z,10.98
2023-02-23T15:45:43.558Z,11.06
2023-02-23T15:48:18.432Z,11.09
2023-02-23T15:50:50.284Z,11.10
2023-02-23T15:53:38.491Z,11.08
2023-02-23T15:56:14.353Z,11.09
2023-02-23T15:58:56.572Z,11.07
2023-02-23T16:01:30.367Z,11.01
2023-02-23T16:04:07.976Z,11.04
2023-02-23T16:06:38.570Z,11.01
2023-02-23T16:09:06.098Z,11.01
2023-02-23T16:11:36.807Z,10.94
2023-02-23T16:14:05.695Z,10.95
2023-02-23T16:16:35.462Z,10.91
2023-02-23T16:19:04.812Z,10.76
2023-02-23T16:21:32.365Z,10.68
2023-02-23T16:24:06.323Z,10.70
2023-02-23T16:26:47.384Z,10.63
2023-02-23T16:29:19.524Z,10.56
2023-02-23T16:31:48.069Z,10.55
2023-02-23T16:34:59.949Z,10.49
2023-02-23T16:37:27.997Z,10.41
2023-02-23T16:40:00.154Z,10.35
2023-02-23T16:42:33.779Z,10.30
2023-02-23T16:45:01.573Z,10.25
2023-02-23T16:47:43.675Z,10.22
2023-02-23T16:50:20.231Z,10.21
2023-02-23T16:52:52.515Z,10.16
2023-02-23T16:55:27.963Z,10.06
2023-02-23T16:57:58.556Z,10.02
2023-02-23T17:00:28.803Z,9.89
2023-02-23T17:02:57.467Z,9.82
2023-02-23T17:05:25.029Z,9.76
2023-02-23T17:07:52.640Z,9.68
2023-02-23T17:10:26.132Z,9.75
2023-02-23T17:13:00.063Z,9.73
2023-02-23T17:15:30.981Z,9.72
2023-02-23T17:17:58.027Z,9.55
2023-02-23T17:20:26.179Z,9.50
2023-02-23T17:22:55.672Z,9.40
2023-02-23T17:25:26.608Z,9.32
2023-02-23T17:27:54.512Z,9.30
2023-02-23T17:30:21.973Z,9.20
2023-02-23T17:32:49.907Z,9.20
2023-02-23T17:35:17.416Z,9.04
2023-02-23T17:37:44.750Z,9.10
2023-02-23T17:40:26.274Z,9.17
2023-02-23T17:42:53.548Z,9.18
2023-02-23T17:45:20.234Z,9.18
2023-02-23T17:47:46.942Z,9.19
2023-02-23T17:50:13.572Z,9.10
2023-02-23T17:52:40.487Z,9.11
2023-02-23T17:55:09.199Z,9.09
2023-02-23T17:57:35.900Z,9.17
2023-02-23T18:00:03.740Z,9.18
2023-02-23T18:02:40.482Z,9.16
2023-02-23T18:05:08.771Z,9.09
2023-02-23T18:07:36.446Z,9.04
2023-02-23T18:10:04.517Z,9.04
2023-02-23T18:12:31.561Z,9.02
2023-02-23T18:14:59.058Z,8.98
2023-02-23T18:17:26.070Z,8.89
2023-02-23T18:19:52.828Z,8.78
2023-02-23T18:22:19.588Z,8.76
2023-02-23T18:24:46.264Z,8.70
2023-02-23T18:27:13.196Z,8.60
2023-02-23T18:29:39.858Z,8.58
2023-02-23T18:32:07.971Z,8.56
2023-02-23T18:34:35.369Z,8.63
2023-02-23T18:37:03.645Z,8.58
2023-02-23T18:39:32.024Z,8.51
2023-02-23T18:41:59.770Z,8.60
2023-02-23T18:44:27.049Z,8.61
2023-02-23T18:46:55.066Z,8.63
2023-02-23T18:49:24.710Z,8.65
2023-02-23T18:51:51.926Z,8.68
2023-02-23T18:54:19.233Z,8.66
2023-02-23T18:56:47.439Z,8.69
2023-02-23T18:59:14.975Z,8.70
2023-02-23T19:01:46.646Z,8.71
2023-02-23T19:04:14.163Z,8.65
2023-02-23T19:06:46.320Z,8.71
2023-02-23T19:09:14.628Z,8.73
2023-02-23T19:11:42.948Z,8.73
2023-02-23T19:14:18.268Z,8.70
2023-02-23T19:16:46.819Z,8.66
2023-02-23T19:19:14.974Z,8.64
2023-02-23T19:21:41.717Z,8.61
2023-02-23T19:24:08.858Z,8.56
2023-02-23T19:26:37.446Z,8.63
2023-02-23T19:29:04.644Z,8.62
2023-02-23T19:31:31.660Z,8.57
2023-02-23T19:33:59.666Z,8.57
2023-02-23T19:36:30.762Z,8.59
2023-02-23T19:39:05.947Z,8.51
2023-02-23T19:41:34.101Z,8.56
2023-02-23T19:44:01.243Z,8.52
2023-02-23T19:46:28.553Z,8.56
2023-02-23T19:48:55.754Z,8.54
2023-02-23T19:51:23.558Z,8.61
2023-02-23T19:53:54.358Z,8.58
2023-02-23T19:56:21.335Z,8.63
2023-02-23T19:58:49.370Z,8.61
2023-02-23T20:01:19.436Z,8.65
2023-02-23T20:03:49.539Z,8.61
2023-02-23T20:06:17.729Z,8.60
2023-02-23T20:08:45.311Z,8.55
2023-02-23T20:11:12.213Z,8.54
2023-02-23T20:13:39.202Z,8.37
2023-02-23T20:16:11.555Z,8.34
2023-02-23T20:18:39.822Z,8.28
2023-02-23T20:21:19.438Z,8.09
2023-02-23T20:23:47.210Z,8.31
2023-02-23T20:26:17.479Z,8.32
2023-02-23T20:28:44.924Z,8.35
2023-02-23T20:31:18.123Z,8.35
2023-02-23T20:33:44.899Z,8.38
2023-02-23T20:36:12.211Z,8.35
2023-02-23T20:38:39.190Z,8.36
2023-02-23T20:41:06.438Z,8.41
2023-02-23T20:43:33.166Z,8.30
2023-02-23T20:46:00.907Z,8.35
2023-02-23T20:48:29.261Z,8.31
2023-02-23T20:50:57.113Z,8.25
2023-02-23T20:53:26.055Z,8.27
2023-02-23T20:55:53.441Z,8.24
2023-02-23T20:58:26.389Z,8.23
2023-02-23T21:00:54.693Z,8.27
2023-02-23T21:03:21.692Z,8.19
2023-02-23T21:05:49.051Z,8.22
2023-02-23T21:08:15.850Z,8.19
2023-02-23T21:10:42.921Z,8.24
2023-02-23T21:13:11.005Z,8.22
2023-02-23T21:15:39.224Z,8.17
2023-02-23T21:18:06.669Z,8.18
2023-02-23T21:20:35.398Z,8.13
2023-02-23T21:23:04.237Z,8.11
2023-02-23T21:25:31.128Z,8.16
2023-02-23T21:28:01.872Z,8.17
2023-02-23T21:30:29.189Z,8.12
2023-02-23T21:32:57.475Z,8.22
2023-02-23T21:35:24.826Z,8.20
2023-02-23T21:37:52.408Z,8.24
2023-02-23T21:40:21.185Z,8.21
2023-02-23T21:42:48.433Z,8.25
2023-02-23T21:45:16.432Z,8.22
2023-02-23T21:47:45.007Z,8.15
2023-02-23T21:50:15.327Z,8.14
2023-02-23T21:52:43.840Z,8.12
2023-02-23T21:55:21.555Z,8.08
2023-02-23T21:57:49.533Z,8.05
2023-02-23T22:00:16.636Z,8.06
2023-02-23T22:02:46.420Z,8.11
2023-02-23T22:05:15.060Z,8.10
2023-02-23T22:07:46.787Z,8.14
2023-02-23T22:10:13.484Z,8.10
2023-02-23T22:12:40.137Z,8.06
2023-02-23T22:15:07.692Z,8.05
2023-02-23T22:17:36.148Z,8.00
2023-02-23T22:20:05.540Z,7.99
2023-02-23T22:22:36.260Z,8.03
2023-02-23T22:25:04.774Z,7.96
2023-02-23T22:27:32.164Z,7.99
2023-02-23T22:30:04.908Z,7.94
2023-02-23T22:32:34.444Z,7.92
2023-02-23T22:35:01.241Z,7.97
2023-02-23T22:37:32.202Z,7.94
2023-02-23T22:40:18.391Z,7.93
2023-02-23T22:42:48.423Z,7.88
2023-02-23T22:45:16.211Z,7.86
2023-02-23T22:47:43.186Z,7.85
2023-02-23T22:50:12.183Z,7.83
2023-02-23T22:52:39.121Z,7.85
2023-02-23T22:55:06.214Z,7.79
2023-02-23T22:57:32.991Z,7.79
2023-02-23T23:00:06.671Z,7.70
2023-02-23T23:02:33.679Z,7.70
2023-02-23T23:05:01.897Z,7.62
2023-02-23T23:07:30.969Z,7.57
2023-02-23T23:09:58.525Z,7.57
2023-02-23T23:12:27.927Z,7.53
2023-02-23T23:15:07.320Z,7.60
2023-02-23T23:17:34.086Z,7.57
2023-02-23T23:20:00.741Z,7.60
2023-02-23T23:22:28.115Z,7.58
2023-02-23T23:24:57.144Z,7.61
2023-02-23T23:27:24.711Z,7.58
2023-02-23T23:29:51.585Z,7.59
2023-02-23T23:32:19.078Z,7.60
2023-02-23T23:34:49.505Z,7.62
2023-02-23T23:37:18.003Z,7.57
2023-02-23T23:39:45.594Z,7.44
2023-02-23T23:42:13.084Z,7.50
2023-02-23T23:44:39.746Z,7.44
2023-02-23T23:47:06.613Z,7.48
2023-02-23T23:49:37.972Z,7.52
2023-02-23T23:52:06.327Z,7.52
2023-02-23T23:54:39.338Z,7.48
2023-02-23T23:57:07.110Z,7.45
2023-02-23T23:59:35.331Z,7.49
